KPOC

Brackett Field Airport

La Verne, California, USA
METAR KPOC 252147Z 24010G15KT 10SM FEW040 20/07 A3010
Observed Flight Rules
May-25 @ 21:47 UTC (43 minutes ago) Visual Flight Rules
Wind Visibility Clouds
240° at 10 knots
 Gusting to 15 knots
10 miles
  • Few at 4,000' AGL
Temperatures Readings
Current 20°C / 68°F
Dewpoint 7°C / 45°F
Humidity 43%
Altimeter 30.1" Hg
Pressure 1019 hPa
Elevation 308
METAR KPOC 252147Z 24010G15KT 10SM FEW040 20/07 A3010
Observed Flight Rules
May-25 @ 21:47 UTC
(43 minutes ago)
VFR
Wind Visibility
240° at 10 knots
 Gusting to 15 knots
10 miles
Clouds
  • Few at 4,000' AGL
Temperature Dewpoint
20°C / 68°F 7°C / 45°F
Humidity Altimeter Pressure
43% 30.1" Hg 1019 hPa